createdAt,value
2023-03-30T00:01:24.634Z,15.70
2023-03-30T00:03:55.225Z,15.70
2023-03-30T00:06:23.488Z,15.70
2023-03-30T00:08:58.453Z,15.70
2023-03-30T00:11:27.500Z,15.80
2023-03-30T00:13:54.812Z,15.90
2023-03-30T00:16:23.052Z,15.70
2023-03-30T00:18:50.742Z,15.70
2023-03-30T00:21:20.409Z,15.70
2023-03-30T00:23:47.958Z,15.60
2023-03-30T00:26:15.871Z,15.60
2023-03-30T00:28:42.933Z,15.60
2023-03-30T00:31:11.359Z,15.60
2023-03-30T00:33:46.608Z,15.50
2023-03-30T00:36:16.027Z,15.80
2023-03-30T00:38:44.079Z,15.30
2023-03-30T00:41:11.559Z,15.30
2023-03-30T00:44:01.728Z,15.20
2023-03-30T00:46:31.308Z,15.20
2023-03-30T00:49:10.160Z,15.20
2023-03-30T00:51:42.552Z,15.10
2023-03-30T00:54:16.677Z,15.10
2023-03-30T00:56:43.826Z,15.10
2023-03-30T00:59:11.166Z,15.10
2023-03-30T01:04:37.700Z,13.00
2023-03-30T01:07:05.862Z,15.10
2023-03-30T01:09:33.172Z,15.10
2023-03-30T01:12:00.573Z,15.10
2023-03-30T01:14:27.967Z,15.10
2023-03-30T01:17:01.606Z,15.10
2023-03-30T01:20:14.863Z,15.10
2023-03-30T01:23:27.442Z,15.10
2023-03-30T01:26:33.814Z,15.20
2023-03-30T01:29:34.815Z,15.20
2023-03-30T01:32:20.648Z,15.30
2023-03-30T01:35:33.497Z,15.40
2023-03-30T01:38:38.385Z,15.50
2023-03-30T01:41:33.820Z,15.70
2023-03-30T01:44:45.832Z,15.70
2023-03-30T01:47:22.684Z,15.80
2023-03-30T01:50:08.754Z,15.80
2023-03-30T01:53:00.222Z,15.70
2023-03-30T01:55:45.508Z,15.70
2023-03-30T01:58:46.755Z,15.60
2023-03-30T02:01:17.906Z,15.60
2023-03-30T02:03:53.531Z,15.50
2023-03-30T02:06:38.697Z,16.30
2023-03-30T02:09:11.090Z,15.40
2023-03-30T02:11:43.913Z,15.30
2023-03-30T02:14:15.992Z,15.40
2023-03-30T02:16:50.063Z,15.20
2023-03-30T02:19:18.747Z,15.20
2023-03-30T02:21:47.992Z,15.20
2023-03-30T02:24:25.854Z,15.10
2023-03-30T02:26:55.054Z,15.10
2023-03-30T02:29:22.956Z,15.20
2023-03-30T02:31:55.816Z,15.20
2023-03-30T02:34:55.030Z,15.30
2023-03-30T02:38:09.761Z,15.40
2023-03-30T02:40:37.921Z,15.50
2023-03-30T02:43:34.158Z,15.60
2023-03-30T02:46:24.803Z,15.70
2023-03-30T02:49:31.550Z,15.80
2023-03-30T02:52:36.983Z,15.90
2023-03-30T02:55:18.796Z,16.00
2023-03-30T02:58:40.730Z,16.10
2023-03-30T03:01:30.002Z,16.10
2023-03-30T03:04:04.885Z,16.20
2023-03-30T03:06:40.420Z,14.70
2023-03-30T03:09:09.417Z,16.40
2023-03-30T03:11:36.588Z,16.40
2023-03-30T03:14:04.421Z,16.90
2023-03-30T03:16:33.974Z,16.50
2023-03-30T03:19:30.266Z,16.50
2023-03-30T03:21:57.562Z,16.60
2023-03-30T03:24:26.024Z,17.60
2023-03-30T03:27:13.052Z,16.60
2023-03-30T03:29:55.845Z,17.70
2023-03-30T03:32:22.930Z,16.80
2023-03-30T03:34:50.755Z,16.70
2023-03-30T03:37:18.400Z,16.70
2023-03-30T03:39:46.411Z,16.80
2023-03-30T03:42:15.645Z,16.70
2023-03-30T03:44:51.631Z,17.00
2023-03-30T03:47:19.336Z,16.80
2023-03-30T03:49:47.075Z,16.80
2023-03-30T03:52:14.079Z,16.90
2023-03-30T03:54:41.546Z,16.90
2023-03-30T03:57:09.305Z,16.90
2023-03-30T03:59:36.541Z,16.90
2023-03-30T04:02:05.529Z,16.90
2023-03-30T04:04:32.964Z,16.80
2023-03-30T04:06:59.889Z,16.90
2023-03-30T04:09:26.858Z,16.80
2023-03-30T04:12:12.292Z,16.90
2023-03-30T04:14:57.870Z,16.90
2023-03-30T04:17:50.020Z,17.00
2023-03-30T04:20:35.580Z,16.80
2023-03-30T04:23:23.926Z,17.00
2023-03-30T04:26:13.639Z,16.70
2023-03-30T04:28:53.807Z,16.70
2023-03-30T04:31:42.172Z,16.60
2023-03-30T04:34:44.749Z,16.60
2023-03-30T04:37:32.785Z,16.50
2023-03-30T04:40:26.282Z,16.50
2023-03-30T04:43:14.326Z,16.40
2023-03-30T04:46:01.870Z,16.40
2023-03-30T04:48:47.811Z,16.20
2023-03-30T04:51:47.034Z,16.10
2023-03-30T04:54:37.253Z,16.10
2023-03-30T04:57:24.692Z,16.00
2023-03-30T05:00:13.759Z,14.50
2023-03-30T05:02:58.418Z,16.00
2023-03-30T05:05:50.756Z,16.00
2023-03-30T05:08:39.899Z,16.00
2023-03-30T05:11:13.996Z,16.00
2023-03-30T05:13:44.167Z,16.10
2023-03-30T05:16:30.535Z,16.20
2023-03-30T05:19:16.546Z,16.20
2023-03-30T05:22:07.017Z,16.30
2023-03-30T05:24:54.492Z,16.30
2023-03-30T05:27:31.909Z,16.40
2023-03-30T05:30:09.565Z,16.40
2023-03-30T05:32:55.796Z,16.40
2023-03-30T05:35:35.036Z,16.30
2023-03-30T05:38:13.630Z,16.30
2023-03-30T05:40:41.094Z,16.10
2023-03-30T05:43:09.255Z,16.60
2023-03-30T05:45:57.236Z,15.60
2023-03-30T05:48:36.466Z,15.50
2023-03-30T05:51:09.191Z,15.80
2023-03-30T05:53:52.356Z,15.10
2023-03-30T05:56:37.045Z,14.90
2023-03-30T05:59:22.563Z,14.80
2023-03-30T06:02:00.794Z,14.60
2023-03-30T06:04:28.317Z,15.00
2023-03-30T06:06:55.779Z,14.40
2023-03-30T06:09:24.153Z,14.30
2023-03-30T06:11:51.699Z,15.00
2023-03-30T06:14:22.880Z,14.10
2023-03-30T06:17:18.981Z,14.10
2023-03-30T06:19:46.029Z,14.00
2023-03-30T06:22:13.570Z,14.00
2023-03-30T06:24:51.704Z,14.40
2023-03-30T06:27:22.286Z,13.90
2023-03-30T06:29:49.709Z,13.90
2023-03-30T06:32:17.693Z,14.00
2023-03-30T06:35:09.001Z,13.80
2023-03-30T06:37:36.773Z,13.80
2023-03-30T06:40:08.728Z,13.80
2023-03-30T06:42:36.837Z,14.80
2023-03-30T06:45:33.598Z,13.80
2023-03-30T06:48:01.107Z,13.70
2023-03-30T06:50:31.694Z,16.00
2023-03-30T06:53:20.355Z,13.70
2023-03-30T06:55:54.809Z,13.80
2023-03-30T06:58:25.789Z,13.60
2023-03-30T07:00:54.448Z,13.70
2023-03-30T07:03:58.709Z,13.70
2023-03-30T07:06:43.792Z,13.80
2023-03-30T07:09:12.905Z,13.80
2023-03-30T07:11:40.943Z,13.90
2023-03-30T07:14:10.191Z,13.90
2023-03-30T07:16:38.415Z,14.00
2023-03-30T07:19:05.824Z,14.20
2023-03-30T07:21:33.913Z,14.60
2023-03-30T07:24:01.609Z,14.30
2023-03-30T07:26:36.498Z,14.50
2023-03-30T07:29:07.595Z,15.10
2023-03-30T07:31:37.277Z,14.50
2023-03-30T07:34:06.398Z,14.70
2023-03-30T07:36:38.583Z,14.80
2023-03-30T07:39:08.152Z,14.90
2023-03-30T07:41:37.799Z,15.30
2023-03-30T07:44:04.854Z,15.30
2023-03-30T07:46:32.354Z,15.50
2023-03-30T07:49:00.843Z,15.70
2023-03-30T07:51:28.413Z,15.90
2023-03-30T07:54:20.283Z,16.10
2023-03-30T07:56:59.473Z,16.30
2023-03-30T07:59:27.037Z,16.50
2023-03-30T08:01:58.799Z,16.60
2023-03-30T08:04:48.109Z,16.80
2023-03-30T08:07:20.694Z,16.90
2023-03-30T08:09:52.051Z,17.20
2023-03-30T08:12:20.268Z,17.00
2023-03-30T08:14:47.189Z,17.10
2023-03-30T08:17:14.342Z,17.20
2023-03-30T08:19:41.384Z,17.30
2023-03-30T08:22:08.362Z,17.20
2023-03-30T08:24:35.621Z,17.30
2023-03-30T08:27:03.050Z,17.20
2023-03-30T08:29:32.386Z,17.40
2023-03-30T08:31:59.488Z,17.20
2023-03-30T08:34:26.492Z,17.10
2023-03-30T08:36:54.780Z,17.00
2023-03-30T08:39:21.995Z,17.00
2023-03-30T08:42:34.091Z,16.90
2023-03-30T08:45:05.450Z,17.80
2023-03-30T08:47:42.734Z,17.70
2023-03-30T08:50:21.310Z,16.80
2023-03-30T08:52:52.094Z,16.90
2023-03-30T08:55:55.865Z,16.90
2023-03-30T08:58:44.192Z,17.00
2023-03-30T09:01:26.360Z,14.90
2023-03-30T09:04:42.205Z,17.20
2023-03-30T09:07:22.449Z,17.30
2023-03-30T09:09:51.904Z,17.50
2023-03-30T09:12:41.814Z,17.60
2023-03-30T09:15:25.759Z,17.70
2023-03-30T09:18:13.764Z,17.90
2023-03-30T09:20:45.538Z,18.40
2023-03-30T09:23:18.567Z,18.10
2023-03-30T09:26:23.684Z,19.00
2023-03-30T09:29:03.900Z,18.00
2023-03-30T09:31:41.278Z,19.30
2023-03-30T09:34:47.291Z,17.70
2023-03-30T09:37:22.347Z,17.60
2023-03-30T09:39:53.980Z,17.50
2023-03-30T09:42:52.146Z,17.50
2023-03-30T09:45:32.667Z,17.60
2023-03-30T09:48:09.677Z,17.70
2023-03-30T09:50:46.037Z,17.80
2023-03-30T09:53:26.345Z,18.00
2023-03-30T09:56:18.691Z,18.10
2023-03-30T09:58:45.848Z,18.30
2023-03-30T10:01:20.813Z,18.40
2023-03-30T10:04:12.871Z,18.50
2023-03-30T10:06:49.984Z,18.50
2023-03-30T10:09:23.820Z,18.80
2023-03-30T10:11:57.280Z,18.50
2023-03-30T10:14:36.106Z,18.40
2023-03-30T10:17:05.976Z,18.40
2023-03-30T10:19:38.952Z,18.40
2023-03-30T10:22:22.913Z,18.50
2023-03-30T10:24:56.976Z,18.60
2023-03-30T10:27:34.351Z,18.70
2023-03-30T10:30:11.802Z,18.90
2023-03-30T10:32:39.414Z,19.00
2023-03-30T10:35:10.511Z,19.10
2023-03-30T10:37:42.906Z,19.10
2023-03-30T10:40:27.614Z,19.20
2023-03-30T10:42:58.234Z,19.10
2023-03-30T10:45:47.410Z,19.10
2023-03-30T10:48:47.774Z,19.10
2023-03-30T10:52:02.037Z,19.10
2023-03-30T10:54:34.611Z,19.20
2023-03-30T10:57:19.430Z,19.30
2023-03-30T11:00:10.967Z,19.40
2023-03-30T11:02:48.878Z,19.50
2023-03-30T11:05:40.761Z,19.50
2023-03-30T11:08:15.205Z,19.50
2023-03-30T11:10:54.903Z,19.50
2023-03-30T11:13:41.507Z,21.60
2023-03-30T11:16:21.151Z,19.50
2023-03-30T11:19:04.035Z,19.50
2023-03-30T11:22:34.403Z,19.60
2023-03-30T11:25:15.660Z,19.60
2023-03-30T11:27:58.407Z,19.50
2023-03-30T11:30:31.757Z,19.40
2023-03-30T11:33:27.207Z,19.30
2023-03-30T11:36:18.925Z,19.20
2023-03-30T11:39:07.282Z,19.10
2023-03-30T11:41:49.581Z,19.30
2023-03-30T11:44:18.190Z,19.40
2023-03-30T11:47:27.947Z,19.70
2023-03-30T11:50:09.515Z,20.00
2023-03-30T11:52:53.057Z,20.30
2023-03-30T11:55:32.046Z,20.50
2023-03-30T11:58:32.110Z,20.60
2023-03-30T12:01:26.830Z,20.60
2023-03-30T12:04:26.675Z,20.60
2023-03-30T12:07:01.837Z,20.50
2023-03-30T12:09:52.375Z,20.30
2023-03-30T12:12:39.373Z,20.20
2023-03-30T12:15:55.560Z,20.10
2023-03-30T12:18:51.692Z,20.00
2023-03-30T12:22:15.299Z,20.00
2023-03-30T12:25:15.210Z,20.00
2023-03-30T12:28:02.627Z,20.00
2023-03-30T12:31:07.490Z,20.00
2023-03-30T12:33:49.882Z,20.00
2023-03-30T12:36:38.751Z,19.90
2023-03-30T12:39:32.166Z,19.90
2023-03-30T12:42:27.963Z,19.80
2023-03-30T12:45:23.385Z,19.80
2023-03-30T12:48:15.999Z,19.80
2023-03-30T12:51:04.207Z,19.90
2023-03-30T12:53:59.907Z,20.20
2023-03-30T12:56:38.185Z,20.20
2023-03-30T12:59:33.231Z,20.30
2023-03-30T13:03:00.190Z,20.50
2023-03-30T13:05:40.284Z,20.60
2023-03-30T13:08:21.798Z,20.60
2023-03-30T13:10:50.510Z,20.60
2023-03-30T13:13:44.458Z,20.60
2023-03-30T13:16:14.124Z,20.50
2023-03-30T13:18:56.250Z,20.60
2023-03-30T13:21:26.092Z,20.70
2023-03-30T13:24:32.583Z,20.80
2023-03-30T13:27:41.783Z,18.60
2023-03-30T13:30:08.790Z,21.00
2023-03-30T13:32:54.493Z,21.00
2023-03-30T13:35:36.290Z,21.10
2023-03-30T13:38:47.804Z,21.20
2023-03-30T13:41:50.749Z,21.20
2023-03-30T13:45:17.187Z,21.10
2023-03-30T13:48:24.094Z,21.10
2023-03-30T13:50:58.604Z,21.00
2023-03-30T13:53:41.813Z,20.90
2023-03-30T13:56:11.240Z,20.70
2023-03-30T13:58:43.182Z,20.40
2023-03-30T14:01:14.771Z,20.10
2023-03-30T14:03:48.143Z,19.60
2023-03-30T14:06:21.267Z,19.10
2023-03-30T14:08:59.448Z,18.50
2023-03-30T14:11:45.634Z,18.00
2023-03-30T14:14:38.342Z,17.60
2023-03-30T14:17:22.148Z,17.30
2023-03-30T14:20:13.952Z,16.80
2023-03-30T14:22:46.172Z,17.00
2023-03-30T14:25:41.011Z,17.10
2023-03-30T14:28:18.726Z,17.10
2023-03-30T14:30:59.303Z,17.20
2023-03-30T14:33:26.652Z,17.30
2023-03-30T14:36:01.383Z,17.40
2023-03-30T14:38:39.839Z,17.50
2023-03-30T14:41:22.820Z,17.60
2023-03-30T14:44:10.658Z,17.70
2023-03-30T14:46:48.322Z,17.70
2023-03-30T14:49:27.835Z,17.80
2023-03-30T14:52:19.740Z,17.80
2023-03-30T14:54:58.166Z,17.80
2023-03-30T14:57:39.809Z,17.80
2023-03-30T15:00:22.571Z,17.80
2023-03-30T15:03:00.657Z,17.70
2023-03-30T15:05:36.200Z,17.60
2023-03-30T15:08:04.837Z,17.60
2023-03-30T15:10:45.344Z,17.60
2023-03-30T15:13:34.236Z,17.70
2023-03-30T15:16:02.016Z,17.90
2023-03-30T15:18:32.220Z,18.10
2023-03-30T15:21:00.356Z,18.30
2023-03-30T15:23:43.231Z,18.50
2023-03-30T15:26:12.514Z,18.40
2023-03-30T15:28:57.823Z,18.40
2023-03-30T15:31:28.253Z,18.40
2023-03-30T15:33:59.690Z,18.40
2023-03-30T15:36:40.686Z,18.60
2023-03-30T15:39:33.662Z,18.80
2023-03-30T15:42:02.281Z,19.00
2023-03-30T15:44:31.033Z,19.10
2023-03-30T15:47:01.361Z,19.20
2023-03-30T15:49:42.555Z,19.20
2023-03-30T15:52:39.855Z,19.10
2023-03-30T15:55:21.157Z,19.20
2023-03-30T15:57:51.712Z,19.00
2023-03-30T16:00:31.411Z,18.90
2023-03-30T16:03:02.067Z,18.90
2023-03-30T16:05:34.095Z,18.80
2023-03-30T16:08:01.503Z,18.70
2023-03-30T16:10:32.266Z,19.40
2023-03-30T16:13:01.543Z,18.60
2023-03-30T16:15:33.326Z,18.60
2023-03-30T16:18:00.963Z,18.60
2023-03-30T16:20:31.337Z,18.60
2023-03-30T16:22:59.611Z,18.70
2023-03-30T16:25:37.783Z,18.70
2023-03-30T16:28:18.729Z,18.70
2023-03-30T16:30:50.027Z,18.60
2023-03-30T16:33:17.079Z,18.60
2023-03-30T16:35:44.336Z,18.50
2023-03-30T16:38:17.629Z,18.50
2023-03-30T16:40:48.658Z,18.70
2023-03-30T16:43:15.747Z,18.20
2023-03-30T16:45:42.851Z,18.10
2023-03-30T16:48:14.908Z,18.10
2023-03-30T16:50:50.370Z,17.90
2023-03-30T16:53:17.403Z,17.80
2023-03-30T16:55:44.586Z,17.70
2023-03-30T16:58:15.901Z,17.60
2023-03-30T17:00:46.853Z,17.50
2023-03-30T17:03:15.578Z,17.40
2023-03-30T17:05:48.655Z,17.30
2023-03-30T17:08:23.936Z,17.30
2023-03-30T17:10:54.588Z,17.30
2023-03-30T17:13:21.794Z,17.20
2023-03-30T17:15:48.818Z,17.20
2023-03-30T17:18:25.973Z,17.10
2023-03-30T17:20:56.640Z,17.00
2023-03-30T17:23:27.735Z,16.90
2023-03-30T17:25:56.922Z,16.90
2023-03-30T17:28:38.381Z,16.80
2023-03-30T17:31:14.620Z,14.70
2023-03-30T17:33:42.491Z,16.60
2023-03-30T17:36:22.541Z,16.50
2023-03-30T17:38:51.614Z,16.40
2023-03-30T17:41:20.020Z,16.30
2023-03-30T17:43:48.285Z,16.30
2023-03-30T17:46:18.990Z,16.20
2023-03-30T17:48:46.989Z,16.10
2023-03-30T17:51:13.962Z,16.10
2023-03-30T17:53:41.074Z,16.00
2023-03-30T17:56:11.686Z,15.90
2023-03-30T17:58:38.903Z,15.90
2023-03-30T18:01:09.860Z,15.80
2023-03-30T18:03:39.662Z,15.80
2023-03-30T18:06:07.427Z,15.70
2023-03-30T18:08:36.246Z,15.70
2023-03-30T18:11:04.416Z,15.80
2023-03-30T18:13:33.606Z,15.70
2023-03-30T18:16:01.851Z,15.60
2023-03-30T18:18:31.065Z,15.70
2023-03-30T18:21:04.188Z,15.60
2023-03-30T18:23:34.542Z,15.50
2023-03-30T18:26:08.409Z,15.50
2023-03-30T18:28:41.107Z,15.60
2023-03-30T18:31:08.924Z,15.50
2023-03-30T18:33:36.324Z,15.50
2023-03-30T18:36:07.571Z,15.50
2023-03-30T18:38:35.409Z,15.50
2023-03-30T18:41:02.557Z,15.60
2023-03-30T18:43:29.911Z,15.50
2023-03-30T18:46:01.512Z,15.60
2023-03-30T18:48:30.048Z,15.50
2023-03-30T18:51:00.802Z,15.60
2023-03-30T18:53:28.929Z,16.30
2023-03-30T18:56:00.677Z,15.40
2023-03-30T18:58:33.439Z,15.40
2023-03-30T19:01:01.548Z,15.40
2023-03-30T19:03:30.383Z,15.10
2023-03-30T19:05:57.943Z,15.20
2023-03-30T19:08:27.107Z,15.20
2023-03-30T19:10:57.441Z,15.60
2023-03-30T19:13:26.748Z,15.20
2023-03-30T19:15:54.754Z,15.10
2023-03-30T19:18:22.876Z,14.90
2023-03-30T19:20:51.274Z,14.90
2023-03-30T19:23:21.883Z,14.80
2023-03-30T19:25:49.935Z,14.70
2023-03-30T19:28:19.089Z,14.60
2023-03-30T19:30:46.767Z,15.70
2023-03-30T19:33:17.102Z,14.40
2023-03-30T19:35:46.490Z,14.40
2023-03-30T19:38:15.992Z,14.30
2023-03-30T19:40:43.378Z,14.30
2023-03-30T19:43:11.173Z,14.30
2023-03-30T19:45:40.251Z,14.30
2023-03-30T19:48:08.048Z,14.30
2023-03-30T19:50:35.516Z,14.30
2023-03-30T19:53:02.785Z,14.20
2023-03-30T19:55:29.953Z,14.20
2023-03-30T19:57:57.100Z,14.20
2023-03-30T20:00:24.508Z,14.10
2023-03-30T20:02:54.296Z,14.10
2023-03-30T20:05:24.150Z,15.20
2023-03-30T20:07:52.884Z,14.00
2023-03-30T20:10:25.663Z,14.00
2023-03-30T20:12:53.135Z,12.30
2023-03-30T20:15:25.824Z,13.90
2023-03-30T20:17:56.685Z,13.90
2023-03-30T20:20:25.619Z,13.90
2023-03-30T20:22:56.186Z,13.70
2023-03-30T20:25:24.653Z,13.70
2023-03-30T20:27:53.526Z,15.10
2023-03-30T20:30:21.354Z,13.60
2023-03-30T20:33:03.934Z,13.50
2023-03-30T20:35:38.192Z,13.50
2023-03-30T20:38:08.265Z,13.40
2023-03-30T20:40:35.551Z,13.30
2023-03-30T20:43:03.333Z,14.60
2023-03-30T20:45:31.636Z,13.20
2023-03-30T20:47:59.928Z,13.20
2023-03-30T20:50:27.200Z,13.10
2023-03-30T20:52:54.230Z,14.90
2023-03-30T20:55:22.564Z,13.00
2023-03-30T20:57:49.467Z,13.00
2023-03-30T21:00:18.241Z,13.30
2023-03-30T21:02:46.694Z,12.90
2023-03-30T21:05:13.700Z,15.10
2023-03-30T21:07:42.445Z,12.80
2023-03-30T21:10:09.852Z,13.10
2023-03-30T21:12:36.827Z,12.80
2023-03-30T21:15:04.096Z,12.80
2023-03-30T21:17:31.834Z,12.70
2023-03-30T21:19:59.053Z,12.70
2023-03-30T21:22:26.093Z,12.60
2023-03-30T21:24:53.152Z,13.70
2023-03-30T21:27:20.423Z,12.60
2023-03-30T21:29:47.413Z,12.60
2023-03-30T21:32:14.865Z,12.60
2023-03-30T21:34:41.982Z,12.50
2023-03-30T21:37:09.107Z,14.30
2023-03-30T21:39:36.489Z,12.40
2023-03-30T21:42:05.170Z,12.80
2023-03-30T21:44:36.372Z,13.80
2023-03-30T21:47:03.532Z,12.30
2023-03-30T21:49:30.747Z,12.30
2023-03-30T21:51:57.814Z,12.30
2023-03-30T21:54:24.715Z,12.90
2023-03-30T21:56:51.775Z,12.20
2023-03-30T21:59:18.908Z,12.10
2023-03-30T22:01:45.912Z,12.10
2023-03-30T22:04:13.214Z,12.10
2023-03-30T22:06:40.482Z,12.00
2023-03-30T22:09:08.359Z,12.00
2023-03-30T22:11:35.405Z,13.30
2023-03-30T22:14:03.106Z,14.00
2023-03-30T22:16:32.333Z,13.80
2023-03-30T22:18:59.326Z,14.30
2023-03-30T22:21:34.994Z,11.90
2023-03-30T22:24:05.553Z,14.20
2023-03-30T22:26:34.698Z,13.50
2023-03-30T22:29:01.853Z,11.80
2023-03-30T22:31:28.882Z,11.80
2023-03-30T22:33:56.841Z,11.80
2023-03-30T22:36:29.954Z,11.80
2023-03-30T22:38:59.392Z,12.90
2023-03-30T22:41:26.710Z,11.80
2023-03-30T22:43:57.288Z,11.90
2023-03-30T22:46:26.664Z,12.50
2023-03-30T22:48:57.686Z,12.90
2023-03-30T22:51:28.564Z,11.90
2023-03-30T22:54:00.521Z,11.90
2023-03-30T22:56:29.598Z,11.90
2023-03-30T22:58:57.584Z,12.60
2023-03-30T23:01:24.954Z,12.00
2023-03-30T23:03:53.489Z,12.10
2023-03-30T23:06:21.432Z,12.10
2023-03-30T23:08:48.705Z,9.90
2023-03-30T23:11:16.595Z,12.20
2023-03-30T23:13:43.759Z,12.30
2023-03-30T23:16:11.113Z,13.90
2023-03-30T23:18:39.058Z,14.20
2023-03-30T23:21:07.745Z,14.20
2023-03-30T23:23:38.351Z,12.50
2023-03-30T23:26:09.737Z,12.50
2023-03-30T23:28:41.414Z,13.90
2023-03-30T23:31:14.675Z,13.00
2023-03-30T23:33:43.108Z,13.10
2023-03-30T23:36:16.853Z,12.70
2023-03-30T23:38:45.362Z,12.70
2023-03-30T23:41:18.921Z,12.70
2023-03-30T23:43:47.003Z,12.70
2023-03-30T23:46:15.538Z,12.80
2023-03-30T23:48:42.672Z,12.80
2023-03-30T23:51:10.187Z,14.60
2023-03-30T23:53:40.180Z,14.10
2023-03-30T23:56:14.723Z,12.80
2023-03-30T23:58:41.968Z,12.80
